createdAt,value
2018-09-28T00:00:26.768Z,3.90
2018-09-28T00:02:56.167Z,4.57
2018-09-28T00:05:25.571Z,4.00
2018-09-28T00:07:54.964Z,4.53
2018-09-28T00:10:24.352Z,3.73
2018-09-28T00:12:53.753Z,5.20
2018-09-28T00:15:23.143Z,3.73
2018-09-28T00:17:52.520Z,4.20
2018-09-28T00:20:22.002Z,5.10
2018-09-28T00:22:51.427Z,3.70
2018-09-28T00:25:20.824Z,4.47
2018-09-28T00:27:50.204Z,4.07
2018-09-28T00:30:19.599Z,4.93
2018-09-28T00:32:48.976Z,4.43
2018-09-28T00:35:18.391Z,4.90
2018-09-28T00:37:47.784Z,3.80
2018-09-28T00:40:17.156Z,4.90
2018-09-28T00:42:46.584Z,4.30
2018-09-28T00:45:15.979Z,3.47
2018-09-28T00:47:45.423Z,3.30
2018-09-28T00:50:14.827Z,5.17
2018-09-28T00:52:44.219Z,2.20
2018-09-28T00:55:13.590Z,3.37
2018-09-28T00:57:43.039Z,3.20
2018-09-28T01:00:12.427Z,3.30
2018-09-28T01:02:42.016Z,4.87
2018-09-28T01:05:11.416Z,3.93
2018-09-28T01:07:42.047Z,4.77
2018-09-28T01:10:11.452Z,2.10
2018-09-28T01:12:42.078Z,3.80
2018-09-28T01:15:11.468Z,4.00
2018-09-28T01:17:42.107Z,3.07
2018-09-28T01:20:11.550Z,4.20
2018-09-28T01:22:42.029Z,4.90
2018-09-28T01:25:11.479Z,4.30
2018-09-28T01:27:42.124Z,5.00
2018-09-28T01:30:11.567Z,5.40
2018-09-28T01:32:42.012Z,3.50
2018-09-28T01:35:11.395Z,4.93
2018-09-28T01:37:42.019Z,4.70
2018-09-28T01:40:11.439Z,3.90
2018-09-28T01:42:42.072Z,1.87
2018-09-28T01:45:11.527Z,3.60
2018-09-28T01:47:42.167Z,4.03
2018-09-28T01:50:11.592Z,5.10
2018-09-28T01:52:42.219Z,3.50
2018-09-28T01:55:11.723Z,3.90
2018-09-28T01:57:42.241Z,3.56
2018-09-28T02:00:11.831Z,3.10
2018-09-28T02:02:42.220Z,4.87
2018-09-28T02:05:11.743Z,3.37
2018-09-28T02:07:42.227Z,5.66
2018-09-28T02:10:11.683Z,3.50
2018-09-28T02:12:42.300Z,3.57
2018-09-28T02:15:11.759Z,4.30
2018-09-28T02:17:42.387Z,3.53
2018-09-28T02:20:11.788Z,3.50
2018-09-28T02:22:42.420Z,4.20
2018-09-28T02:25:11.976Z,3.60
2018-09-28T02:27:42.637Z,6.62
2018-09-28T02:30:12.047Z,6.00
2018-09-28T02:32:42.411Z,4.30
2018-09-28T02:35:11.883Z,5.70
2018-09-28T02:37:42.474Z,4.66
2018-09-28T02:40:11.895Z,4.17
2018-09-28T02:42:42.498Z,5.02
2018-09-28T02:45:12.055Z,3.37
2018-09-28T02:47:42.671Z,2.95
2018-09-28T02:50:12.063Z,3.03
2018-09-28T02:52:42.508Z,4.53
2018-09-28T02:55:11.928Z,4.07
2018-09-28T02:57:42.528Z,4.10
2018-09-28T03:00:11.936Z,4.17
2018-09-28T03:02:42.449Z,4.34
2018-09-28T03:05:11.856Z,4.00
2018-09-28T03:07:42.500Z,4.00
2018-09-28T03:10:11.931Z,3.30
2018-09-28T03:12:42.465Z,2.90
2018-09-28T03:15:11.864Z,2.50
2018-09-28T03:17:42.505Z,3.90
2018-09-28T03:20:11.916Z,4.90
2018-09-28T03:22:42.555Z,4.30
2018-09-28T03:25:11.963Z,4.10
2018-09-28T03:27:42.591Z,3.60
2018-09-28T03:30:12.001Z,5.80
2018-09-28T03:32:42.632Z,5.17
2018-09-28T03:35:12.035Z,4.37
2018-09-28T03:37:42.668Z,3.80
2018-09-28T03:40:12.111Z,5.53
2018-09-28T03:42:42.743Z,4.70
2018-09-28T03:45:12.132Z,4.43
2018-09-28T03:47:45.176Z,3.38
2018-09-28T03:50:14.604Z,4.60
2018-09-28T03:52:43.993Z,3.60
2018-09-28T03:55:13.899Z,4.37
2018-09-28T03:57:43.347Z,5.07
2018-09-28T04:00:12.748Z,5.10
2018-09-28T04:02:42.851Z,4.60
2018-09-28T04:05:12.277Z,4.50
2018-09-28T04:07:42.907Z,4.03
2018-09-28T04:10:12.333Z,5.70
2018-09-28T04:12:42.969Z,3.87
2018-09-28T04:15:12.429Z,4.80
2018-09-28T04:17:43.132Z,4.37
2018-09-28T04:20:12.588Z,4.17
2018-09-28T04:22:43.043Z,6.00
2018-09-28T04:25:12.456Z,3.63
2018-09-28T04:27:43.099Z,5.63
2018-09-28T04:30:12.512Z,4.43
2018-09-28T04:32:43.099Z,4.52
2018-09-28T04:35:12.485Z,3.33
2018-09-28T04:37:43.120Z,4.63
2018-09-28T04:40:12.530Z,3.87
2018-09-28T04:42:43.160Z,5.50
2018-09-28T04:45:12.600Z,5.30
2018-09-28T04:47:43.205Z,8.43
2018-09-28T04:50:12.621Z,6.47
2018-09-28T04:52:43.223Z,7.52
2018-09-28T04:55:12.627Z,6.87
2018-09-28T04:57:43.252Z,6.10
2018-09-28T05:00:12.685Z,5.17
2018-09-28T05:02:43.292Z,6.33
2018-09-28T05:05:12.705Z,6.47
2018-09-28T05:07:43.319Z,7.23
2018-09-28T05:10:12.716Z,5.87
2018-09-28T05:12:43.341Z,5.33
2018-09-28T05:15:12.828Z,6.47
2018-09-28T05:17:43.408Z,5.64
2018-09-28T05:20:12.799Z,5.03
2018-09-28T05:22:43.568Z,5.93
2018-09-28T05:25:13.050Z,5.23
2018-09-28T05:27:43.343Z,4.83
2018-09-28T05:30:12.740Z,5.53
2018-09-28T05:32:43.489Z,4.03
2018-09-28T05:35:12.816Z,5.00
2018-09-28T05:37:43.473Z,4.73
2018-09-28T05:40:12.952Z,4.70
2018-09-28T05:42:43.371Z,3.62
2018-09-28T05:45:12.824Z,4.80
2018-09-28T05:47:43.458Z,4.30
2018-09-28T05:50:12.828Z,6.30
2018-09-28T05:52:43.463Z,4.57
2018-09-28T05:55:12.865Z,4.90
2018-09-28T05:57:43.448Z,7.06
2018-09-28T06:00:18.155Z,5.07
2018-09-28T06:03:05.366Z,5.10
2018-09-28T06:05:37.863Z,5.30
2018-09-28T06:08:07.251Z,4.50
2018-09-28T06:10:36.645Z,7.43
2018-09-28T06:13:06.284Z,7.90
2018-09-28T06:15:35.721Z,7.40
2018-09-28T06:18:05.279Z,7.10
2018-09-28T06:20:34.740Z,8.90
2018-09-28T06:23:04.339Z,5.10
2018-09-28T06:25:33.850Z,8.17
2018-09-28T06:28:03.263Z,8.70
2018-09-28T06:30:32.741Z,7.13
2018-09-28T06:33:02.143Z,6.10
2018-09-28T06:35:31.603Z,4.00
2018-09-28T06:38:00.960Z,3.63
2018-09-28T06:40:30.408Z,3.97
2018-09-28T06:42:59.852Z,4.07
2018-09-28T06:45:29.243Z,4.33
2018-09-28T06:47:58.770Z,3.57
2018-09-28T06:50:28.096Z,5.23
2018-09-28T06:52:57.535Z,3.53
2018-09-28T06:55:26.940Z,3.00
2018-09-28T06:57:56.564Z,4.00
2018-09-28T07:00:26.040Z,6.10
2018-09-28T07:02:55.396Z,5.40
2018-09-28T07:05:24.843Z,4.77
2018-09-28T07:07:54.250Z,2.60
2018-09-28T07:10:23.649Z,5.67
2018-09-28T07:12:53.997Z,4.47
2018-09-28T07:15:23.419Z,3.83
2018-09-28T07:17:52.894Z,4.60
2018-09-28T07:20:22.260Z,4.87
2018-09-28T07:22:51.643Z,3.57
2018-09-28T07:25:21.062Z,5.37
2018-09-28T07:27:50.455Z,7.00
2018-09-28T07:30:20.078Z,5.33
2018-09-28T07:32:49.488Z,7.50
2018-09-28T07:35:19.015Z,5.90
2018-09-28T07:37:48.585Z,5.08
2018-09-28T07:40:17.991Z,4.67
2018-09-28T07:42:47.383Z,5.73
2018-09-28T07:45:16.827Z,7.33
2018-09-28T07:47:46.414Z,5.40
2018-09-28T07:50:15.808Z,7.63
2018-09-28T07:52:45.292Z,3.53
2018-09-28T07:55:14.691Z,5.67
2018-09-28T07:57:44.136Z,8.60
2018-09-28T08:00:13.620Z,6.07
2018-09-28T08:02:43.671Z,6.60
2018-09-28T08:05:13.091Z,4.80
2018-09-28T08:07:43.792Z,6.37
2018-09-28T08:10:13.188Z,6.27
2018-09-28T08:12:43.892Z,6.33
2018-09-28T08:15:13.396Z,7.20
2018-09-28T08:17:43.816Z,5.10
2018-09-28T08:20:13.264Z,6.80
2018-09-28T08:22:43.719Z,7.03
2018-09-28T08:25:13.153Z,4.90
2018-09-28T08:27:43.713Z,7.14
2018-09-28T08:30:19.835Z,6.90
2018-09-28T08:32:49.288Z,7.73
2018-09-28T08:35:19.021Z,5.47
2018-09-28T08:37:48.436Z,5.80
2018-09-28T08:40:18.016Z,7.93
2018-09-28T08:42:47.502Z,4.30
2018-09-28T08:45:16.914Z,5.60
2018-09-28T08:47:46.312Z,6.20
2018-09-28T08:50:15.955Z,3.93
2018-09-28T08:52:45.718Z,6.53
2018-09-28T08:55:15.212Z,7.37
2018-09-28T08:57:44.732Z,9.30
2018-09-28T09:00:14.308Z,5.67
2018-09-28T09:02:43.960Z,5.67
2018-09-28T09:05:13.535Z,6.63
2018-09-28T09:07:43.932Z,6.20
2018-09-28T09:10:13.368Z,6.90
2018-09-28T09:12:43.981Z,5.72
2018-09-28T09:15:19.952Z,7.40
2018-09-28T09:17:49.397Z,5.93
2018-09-28T09:20:18.787Z,6.90
2018-09-28T09:22:48.206Z,8.63
2018-09-28T09:25:17.608Z,6.47
2018-09-28T09:27:47.011Z,4.70
2018-09-28T09:30:16.517Z,6.57
2018-09-28T09:32:45.943Z,7.70
2018-09-28T09:35:15.344Z,6.57
2018-09-28T09:37:44.773Z,11.47
2018-09-28T09:40:14.199Z,12.47
2018-09-28T09:42:44.117Z,12.35
2018-09-28T09:45:13.490Z,13.90
2018-09-28T09:47:44.140Z,13.60
2018-09-28T09:50:13.544Z,15.40
2018-09-28T09:52:44.112Z,14.08
2018-09-28T09:55:13.535Z,14.47
2018-09-28T09:57:44.117Z,14.06
2018-09-28T10:00:17.584Z,11.90
2018-09-28T10:02:52.218Z,14.70
2018-09-28T10:05:21.660Z,11.43
2018-09-28T10:07:51.164Z,9.43
2018-09-28T10:10:20.604Z,10.10
2018-09-28T10:12:50.230Z,12.63
2018-09-28T10:15:20.066Z,10.83
2018-09-28T10:17:49.476Z,9.87
2018-09-28T10:20:19.009Z,11.90
2018-09-28T10:22:48.743Z,10.07
2018-09-28T10:25:18.415Z,9.43
2018-09-28T10:27:48.269Z,9.13
2018-09-28T10:30:17.922Z,9.80
2018-09-28T10:32:48.827Z,9.47
2018-09-28T10:35:19.129Z,9.20
2018-09-28T10:37:49.416Z,7.60
2018-09-28T10:40:20.041Z,7.10
2018-09-28T10:42:50.372Z,6.72
2018-09-28T10:45:20.119Z,6.90
2018-09-28T10:47:50.546Z,4.90
2018-09-28T10:50:20.857Z,7.60
2018-09-28T10:52:51.311Z,5.77
2018-09-28T10:55:21.832Z,11.87
2018-09-28T10:57:52.240Z,7.77
2018-09-28T11:00:22.954Z,7.80
2018-09-28T11:02:52.428Z,13.37
2018-09-28T11:05:22.665Z,7.40
2018-09-28T11:07:52.127Z,8.67
2018-09-28T11:10:22.629Z,10.10
2018-09-28T11:12:53.280Z,8.70
2018-09-28T11:15:23.025Z,9.13
2018-09-28T11:17:52.683Z,5.37
2018-09-28T11:20:23.038Z,6.10
2018-09-28T11:22:53.207Z,6.80
2018-09-28T11:25:23.686Z,6.60
2018-09-28T11:27:53.124Z,6.23
2018-09-28T11:30:23.515Z,4.70
2018-09-28T11:32:52.932Z,5.40
2018-09-28T11:35:22.383Z,4.30
2018-09-28T11:37:51.874Z,5.00
2018-09-28T11:40:21.224Z,3.23
2018-09-28T11:42:50.637Z,4.37
2018-09-28T11:45:20.053Z,4.00
2018-09-28T11:47:49.449Z,5.53
2018-09-28T11:50:18.900Z,5.07
2018-09-28T11:52:48.352Z,5.97
2018-09-28T11:55:17.747Z,6.00
2018-09-28T11:57:47.208Z,6.60
2018-09-28T12:00:16.770Z,5.87
2018-09-28T12:02:46.322Z,5.10
2018-09-28T12:05:15.954Z,6.33
2018-09-28T12:07:46.092Z,4.97
2018-09-28T12:10:15.734Z,3.80
2018-09-28T12:12:46.127Z,5.00
2018-09-28T12:15:15.708Z,5.50
2018-09-28T12:17:46.133Z,4.60
2018-09-28T12:20:15.582Z,5.30
2018-09-28T12:22:45.915Z,6.65
2018-09-28T12:25:15.347Z,5.00
2018-09-28T12:27:46.079Z,6.80
2018-09-28T12:30:15.469Z,4.57
2018-09-28T12:32:45.952Z,6.44
2018-09-28T12:35:15.381Z,8.67
2018-09-28T12:37:45.956Z,5.40
2018-09-28T12:40:15.410Z,4.03
2018-09-28T12:42:45.997Z,3.50
2018-09-28T12:45:15.381Z,5.57
2018-09-28T12:47:46.000Z,4.87
2018-09-28T12:50:15.435Z,2.90
2018-09-28T12:52:46.100Z,3.83
2018-09-28T12:55:15.500Z,5.20
2018-09-28T12:57:45.923Z,4.12
2018-09-28T13:00:15.402Z,4.80
2018-09-28T13:02:46.249Z,7.57
2018-09-28T13:05:15.644Z,5.00
2018-09-28T13:07:46.010Z,6.62
2018-09-28T13:10:15.519Z,5.33
2018-09-28T13:12:46.146Z,4.45
2018-09-28T13:15:15.646Z,3.83
2018-09-28T13:17:45.980Z,4.12
2018-09-28T13:20:15.483Z,5.00
2018-09-28T13:22:46.084Z,5.87
2018-09-28T13:25:15.499Z,6.00
2018-09-28T13:27:46.159Z,6.30
2018-09-28T13:30:15.617Z,4.57
2018-09-28T13:32:46.313Z,5.90
2018-09-28T13:35:15.632Z,4.90
2018-09-28T13:37:46.281Z,4.90
2018-09-28T13:40:15.726Z,4.97
2018-09-28T13:42:46.403Z,4.23
2018-09-28T13:45:15.839Z,4.40
2018-09-28T13:47:46.300Z,4.50
2018-09-28T13:50:15.952Z,8.77
2018-09-28T13:52:46.577Z,6.20
2018-09-28T13:55:16.206Z,6.47
2018-09-28T13:57:46.688Z,4.58
2018-09-28T14:00:16.400Z,4.17
2018-09-28T14:02:46.730Z,7.62
2018-09-28T14:05:16.308Z,5.30
2018-09-28T14:07:46.614Z,6.25
2018-09-28T14:10:16.256Z,4.00
2018-09-28T14:12:46.729Z,8.10
2018-09-28T14:15:16.283Z,4.07
2018-09-28T14:17:46.703Z,4.15
2018-09-28T14:20:16.505Z,3.53
2018-09-28T14:22:46.725Z,6.00
2018-09-28T14:25:17.244Z,7.17
2018-09-28T14:27:46.887Z,4.00
2018-09-28T14:30:16.481Z,4.00
2018-09-28T14:32:46.847Z,7.00
2018-09-28T14:35:16.409Z,4.00
2018-09-28T14:37:46.811Z,3.80
2018-09-28T14:40:16.508Z,3.87
2018-09-28T14:42:46.934Z,8.23
2018-09-28T14:45:16.613Z,6.13
2018-09-28T14:47:46.828Z,4.35
2018-09-28T14:50:16.499Z,4.80
2018-09-28T14:52:46.915Z,4.45
2018-09-28T14:55:16.657Z,6.03
2018-09-28T14:57:46.855Z,5.05
2018-09-28T15:00:16.487Z,2.67
2018-09-28T15:02:46.966Z,5.05
2018-09-28T15:05:16.569Z,6.10
2018-09-28T15:07:46.838Z,6.03
2018-09-28T15:10:16.535Z,2.97
2018-09-28T15:12:46.893Z,4.85
2018-09-28T15:15:16.463Z,5.00
2018-09-28T15:17:46.821Z,7.28
2018-09-28T15:20:16.460Z,4.00
2018-09-28T15:22:46.868Z,2.95
2018-09-28T15:25:16.483Z,8.20
2018-09-28T15:27:46.797Z,5.65
2018-09-28T15:30:16.503Z,6.23
2018-09-28T15:32:47.039Z,7.17
2018-09-28T15:35:16.772Z,6.57
2018-09-28T15:37:46.863Z,7.20
2018-09-28T15:40:16.515Z,4.10
2018-09-28T15:42:47.064Z,4.33
2018-09-28T15:45:16.695Z,4.37
2018-09-28T15:47:47.058Z,4.85
2018-09-28T15:50:16.604Z,4.37
2018-09-28T15:52:47.130Z,2.05
2018-09-28T15:55:16.728Z,4.90
2018-09-28T15:57:47.061Z,7.17
2018-09-28T16:00:16.503Z,5.03
2018-09-28T16:02:46.900Z,7.12
2018-09-28T16:05:16.371Z,4.50
2018-09-28T16:07:47.017Z,4.93
2018-09-28T16:10:16.447Z,3.90
2018-09-28T16:12:46.860Z,4.35
2018-09-28T16:15:16.280Z,7.37
2018-09-28T16:17:46.994Z,4.53
2018-09-28T16:20:16.416Z,5.00
2018-09-28T16:22:47.012Z,4.46
2018-09-28T16:25:16.492Z,5.20
2018-09-28T16:27:46.932Z,5.00
2018-09-28T16:30:16.383Z,3.90
2018-09-28T16:32:46.924Z,4.30
2018-09-28T16:35:16.336Z,6.20
2018-09-28T16:37:46.993Z,4.33
2018-09-28T16:40:16.411Z,3.03
2018-09-28T16:42:46.937Z,2.62
2018-09-28T16:45:16.389Z,3.97
2018-09-28T16:47:46.904Z,5.20
2018-09-28T16:50:16.332Z,4.20
2018-09-28T16:57:53.564Z,5.00
2018-09-28T17:00:23.080Z,3.53
2018-09-28T17:02:52.504Z,4.07
2018-09-28T17:05:21.913Z,3.73
2018-09-28T17:07:51.332Z,6.00
2018-09-28T17:10:20.799Z,5.73
2018-09-28T17:12:50.446Z,2.27
2018-09-28T17:15:19.973Z,5.23
2018-09-28T17:17:49.368Z,8.13
2018-09-28T17:20:18.782Z,4.43
2018-09-28T17:22:48.248Z,2.97
2018-09-28T17:25:17.676Z,1.63
2018-09-28T17:27:47.099Z,1.70
2018-09-28T17:30:16.528Z,5.40
2018-09-28T17:32:47.284Z,5.00
2018-09-28T17:35:16.789Z,3.83
2018-09-28T17:37:47.487Z,6.75
2018-09-28T17:40:17.001Z,5.40
2018-09-28T17:42:47.271Z,3.50
2018-09-28T17:45:16.871Z,6.00
2018-09-28T17:47:47.284Z,3.40
2018-09-28T17:50:16.792Z,3.40
2018-09-28T17:52:47.265Z,4.72
2018-09-28T17:55:16.751Z,6.00
2018-09-28T17:57:47.155Z,3.27
2018-09-28T18:00:17.164Z,4.87
2018-09-28T18:02:47.888Z,3.58
2018-09-28T18:05:17.748Z,4.63
2018-09-28T18:07:47.269Z,4.23
2018-09-28T18:10:16.896Z,4.30
2018-09-28T18:12:47.201Z,5.25
2018-09-28T18:15:17.123Z,4.70
2018-09-28T18:17:48.612Z,3.45
2018-09-28T18:20:18.881Z,5.10
2018-09-28T18:22:49.960Z,2.13
2018-09-28T18:25:20.788Z,2.10
2018-09-28T18:27:52.908Z,3.43
2018-09-28T18:30:24.916Z,3.50
2018-09-28T18:32:57.351Z,2.70
2018-09-28T18:35:29.705Z,3.80
2018-09-28T18:38:02.212Z,3.25
2018-09-28T18:40:34.600Z,5.17
2018-09-28T18:43:07.432Z,6.17
2018-09-28T18:45:39.736Z,4.87
2018-09-28T18:48:12.124Z,4.40
2018-09-28T18:50:44.405Z,2.80
2018-09-28T18:53:16.675Z,2.00
2018-09-28T18:55:48.981Z,3.93
2018-09-28T18:58:21.358Z,6.70
2018-09-28T19:00:53.636Z,2.60
2018-09-28T19:03:26.124Z,4.80
2018-09-28T19:05:58.501Z,2.77
2018-09-28T19:08:30.866Z,4.90
2018-09-28T19:11:03.372Z,3.67
2018-09-28T19:13:36.454Z,2.87
2018-09-28T19:16:08.863Z,3.00
2018-09-28T19:18:41.235Z,4.03
2018-09-28T19:21:13.465Z,3.53
2018-09-28T19:23:45.923Z,3.77
2018-09-28T19:26:18.180Z,3.87
2018-09-28T19:28:50.504Z,5.33
2018-09-28T19:31:22.852Z,4.73
2018-09-28T19:33:55.086Z,3.62
2018-09-28T19:36:27.423Z,3.50
2018-09-28T19:38:59.680Z,1.70
2018-09-28T19:41:32.188Z,3.77
2018-09-28T19:44:04.404Z,2.40
2018-09-28T19:46:36.826Z,3.40
2018-09-28T19:49:09.288Z,1.72
2018-09-28T19:51:41.765Z,1.53
2018-09-28T19:54:14.118Z,4.23
2018-09-28T19:56:46.296Z,3.13
2018-09-28T19:59:18.684Z,4.37
2018-09-28T20:01:51.012Z,3.80
2018-09-28T20:04:23.257Z,2.80
2018-09-28T20:06:55.512Z,2.70
2018-09-28T20:09:27.839Z,3.67
2018-09-28T20:12:00.237Z,3.67
2018-09-28T20:14:33.640Z,6.80
2018-09-28T20:17:05.923Z,8.57
2018-09-28T20:19:38.138Z,5.37
2018-09-28T20:22:14.510Z,4.17
2018-09-28T20:24:47.016Z,2.77
2018-09-28T20:27:19.154Z,3.20
2018-09-28T20:29:51.570Z,3.10
2018-09-28T20:32:23.898Z,6.30
2018-09-28T20:34:55.950Z,4.50
2018-09-28T20:37:27.431Z,4.70
2018-09-28T20:39:57.613Z,3.20
2018-09-28T20:42:27.405Z,4.40
2018-09-28T20:44:57.071Z,2.92
2018-09-28T20:47:26.857Z,4.23
2018-09-28T20:49:56.566Z,2.10
2018-09-28T20:52:26.519Z,4.40
2018-09-28T20:54:56.368Z,4.20
2018-09-28T20:57:25.994Z,4.57
2018-09-28T20:59:55.637Z,4.00
2018-09-28T21:02:25.231Z,5.70
2018-09-28T21:04:54.869Z,4.00
2018-09-28T21:07:24.476Z,5.97
2018-09-28T21:09:54.026Z,4.07
2018-09-28T21:12:23.604Z,2.57
2018-09-28T21:14:53.140Z,3.10
2018-09-28T21:17:22.765Z,4.27
2018-09-28T21:19:52.418Z,1.00
2018-09-28T21:22:22.084Z,2.87
2018-09-28T21:24:51.675Z,2.70
2018-09-28T21:27:21.263Z,3.27
2018-09-28T21:29:50.877Z,2.43
2018-09-28T21:32:20.441Z,2.70
2018-09-28T21:34:50.049Z,3.27
2018-09-28T21:37:19.575Z,3.27
2018-09-28T21:39:49.132Z,1.85
2018-09-28T21:42:18.651Z,3.57
2018-09-28T21:44:48.199Z,2.27
2018-09-28T21:47:17.754Z,1.10
2018-09-28T21:49:47.430Z,1.77
2018-09-28T21:52:17.056Z,2.57
2018-09-28T21:54:46.726Z,3.27
2018-09-28T21:57:16.287Z,4.10
2018-09-28T21:59:45.873Z,3.10
2018-09-28T22:02:15.512Z,2.87
2018-09-28T22:04:44.962Z,3.57
2018-09-28T22:07:14.357Z,4.37
2018-09-28T22:09:43.816Z,2.20
2018-09-28T22:12:13.241Z,1.50
2018-09-28T22:14:42.643Z,2.87
2018-09-28T22:17:12.080Z,3.63
2018-09-28T22:19:45.743Z,4.17
2018-09-28T22:22:15.206Z,2.13
2018-09-28T22:24:44.712Z,3.30
2018-09-28T22:27:14.313Z,4.23
2018-09-28T22:29:43.911Z,1.40
2018-09-28T22:32:13.428Z,2.67
2018-09-28T22:34:42.928Z,2.63
2018-09-28T22:37:12.488Z,3.90
2018-09-28T22:39:41.967Z,3.27
2018-09-28T22:42:11.512Z,2.90
2018-09-28T22:44:41.112Z,2.70
2018-09-28T22:47:10.679Z,3.03
2018-09-28T22:49:40.216Z,1.90
2018-09-28T22:52:09.779Z,2.60
2018-09-28T22:54:39.355Z,3.60
2018-09-28T22:57:08.908Z,1.70
2018-09-28T22:59:38.472Z,5.13
2018-09-28T23:02:07.992Z,4.00
2018-09-28T23:04:37.737Z,2.37
2018-09-28T23:07:07.378Z,3.27
2018-09-28T23:09:36.939Z,3.27
2018-09-28T23:12:06.562Z,1.87
2018-09-28T23:14:36.082Z,3.17
2018-09-28T23:17:05.674Z,2.30
2018-09-28T23:19:35.186Z,2.67
2018-09-28T23:22:04.890Z,2.47
2018-09-28T23:24:34.439Z,3.40
2018-09-28T23:27:04.022Z,3.27
2018-09-28T23:29:33.600Z,3.63
2018-09-28T23:32:03.136Z,3.10
2018-09-28T23:34:39.092Z,3.10
2018-09-28T23:37:08.657Z,2.90
2018-09-28T23:39:38.199Z,2.47
2018-09-28T23:42:08.020Z,3.30
2018-09-28T23:44:37.592Z,3.50
2018-09-28T23:47:07.224Z,2.80
2018-09-28T23:49:36.815Z,3.33
2018-09-28T23:52:06.419Z,2.60
2018-09-28T23:54:36.017Z,3.03
2018-09-28T23:57:05.543Z,4.67
2018-09-28T23:59:35.276Z,5.37
